Time;durP1;ratioP1;P1;durP2;ratioP2;P2;SDS_P1;SDS_P2;PMS_P1;PMS_P2;Temp;Humidity;BMP_temperature;BMP_pressure;BME280_temperature;BME280_humidity;BME280_pressure;Samples;Min_cycle;Max_cycle;Signal;HPM_P1;HPM_P2
2022/04/07 00:01:41;;;;;;;5.45;2.15;;;10.50;99.90;;;;;;4143836;28;20057;-64
2022/04/07 00:03:42;;;;;;;3.03;1.90;;;10.50;99.90;;;;;;4145505;28;20084;-64
2022/04/07 00:05:43;;;;;;;4.07;1.67;;;10.50;99.90;;;;;;4144941;28;20125;-68
2022/04/07 00:07:43;;;;;;;4.25;1.95;;;10.50;99.90;;;;;;4145871;28;20393;-66
2022/04/07 00:09:44;;;;;;;4.35;1.83;;;10.50;99.90;;;;;;4145268;28;20042;-65
2022/04/07 00:11:45;;;;;;;4.03;1.25;;;10.50;99.90;;;;;;4144752;28;20129;-65
2022/04/07 00:13:46;;;;;;;3.05;1.35;;;10.50;99.90;;;;;;4143234;28;20228;-64
2022/04/07 00:15:47;;;;;;;4.20;1.40;;;10.50;99.90;;;;;;4144876;28;20500;-64
2022/04/07 00:17:47;;;;;;;3.65;1.40;;;10.50;99.90;;;;;;4144894;28;20026;-64
2022/04/07 00:19:48;;;;;;;3.05;1.00;;;10.50;99.90;;;;;;4147938;28;20477;-65
2022/04/07 00:21:48;;;;;;;2.58;1.30;;;10.50;99.90;;;;;;4143932;28;20800;-65
2022/04/07 00:23:49;;;;;;;3.28;1.10;;;10.50;99.90;;;;;;4144794;28;20430;-64
2022/04/07 00:25:50;;;;;;;1.65;1.00;;;10.50;99.90;;;;;;4143908;28;20046;-64
2022/04/07 00:27:50;;;;;;;1.08;0.90;;;10.50;99.90;;;;;;4144160;28;20120;-64
2022/04/07 00:29:52;;;;;;;1.60;1.00;;;10.50;99.90;;;;;;4144127;28;20440;-64
2022/04/07 00:31:58;;;;;;;1.88;1.00;;;10.50;99.90;;;;;;4144927;28;20053;-64
2022/04/07 00:33:59;;;;;;;1.30;0.73;;;10.60;99.90;;;;;;4144710;28;20041;-65
2022/04/07 00:35:59;;;;;;;2.17;1.27;;;10.50;99.90;;;;;;4144656;28;20405;-64
2022/04/07 00:38:00;;;;;;;2.47;1.10;;;10.50;99.90;;;;;;4144752;28;20545;-64
2022/04/07 00:40:02;;;;;;;4.47;1.08;;;10.50;99.90;;;;;;4144392;28;20034;-64
2022/04/07 00:42:02;;;;;;;3.38;1.20;;;10.50;99.90;;;;;;4143898;28;20084;-64
2022/04/07 00:44:08;;;;;;;3.13;1.45;;;10.50;99.90;;;;;;4144710;28;20041;-64
2022/04/07 00:46:08;;;;;;;2.10;1.02;;;10.50;99.90;;;;;;4147924;28;20036;-64
2022/04/07 00:48:09;;;;;;;1.73;1.10;;;10.50;99.90;;;;;;4145742;28;20033;-64
2022/04/07 00:50:11;;;;;;;1.63;0.90;;;10.50;99.90;;;;;;4143905;28;20049;-66
2022/04/07 00:52:12;;;;;;;2.38;1.30;;;10.50;99.90;;;;;;4144584;28;20057;-64
2022/04/07 00:54:13;;;;;;;5.28;1.40;;;10.50;99.90;;;;;;4144308;28;20524;-64
2022/04/07 00:56:14;;;;;;;4.70;1.15;;;10.40;99.90;;;;;;4143230;28;20030;-66
2022/04/07 00:58:15;;;;;;;6.00;1.45;;;10.40;99.90;;;;;;4144338;28;20445;-66
2022/04/07 01:00:15;;;;;;;2.22;1.15;;;10.40;99.90;;;;;;4144029;28;20034;-64
2022/04/07 01:02:16;;;;;;;8.13;1.50;;;10.40;99.90;;;;;;4144092;28;20042;-65
2022/04/07 01:04:17;;;;;;;3.65;1.15;;;10.40;99.90;;;;;;4144704;28;20092;-64
2022/04/07 01:06:18;;;;;;;5.93;1.77;;;10.40;99.90;;;;;;4144139;28;20125;-65
2022/04/07 01:08:19;;;;;;;2.92;1.10;;;10.40;99.90;;;;;;4145020;28;20033;-64
2022/04/07 01:10:20;;;;;;;3.30;1.38;;;10.40;99.90;;;;;;4144400;28;20030;-64
2022/04/07 01:12:21;;;;;;;2.33;1.20;;;10.40;99.90;;;;;;4144050;28;20470;-65
2022/04/07 01:14:22;;;;;;;5.50;1.50;;;10.40;99.90;;;;;;4144451;28;20022;-65
2022/04/07 01:16:26;;;;;;;3.80;1.35;;;10.40;99.90;;;;;;4143398;28;20041;-64
2022/04/07 01:18:27;;;;;;;5.15;1.55;;;10.40;99.90;;;;;;4144377;28;20022;-65
2022/04/07 01:20:28;;;;;;;3.53;1.45;;;10.40;99.90;;;;;;4143412;28;20026;-65
2022/04/07 01:22:30;;;;;;;4.40;1.27;;;10.40;99.90;;;;;;4145318;28;20298;-64
2022/04/07 01:24:31;;;;;;;3.28;1.20;;;10.40;99.90;;;;;;4146203;28;20038;-64
2022/04/07 01:26:39;;;;;;;2.47;1.08;;;10.50;99.90;;;;;;4143628;28;20561;-65
2022/04/07 01:28:47;;;;;;;4.40;1.85;;;10.50;99.90;;;;;;4144867;28;20033;-64
2022/04/07 01:30:48;;;;;;;7.18;1.83;;;10.40;99.90;;;;;;4143924;28;20028;-64
2022/04/07 01:32:53;;;;;;;5.85;1.30;;;10.40;99.90;;;;;;4143984;28;20034;-64
2022/04/07 01:34:54;;;;;;;6.65;1.58;;;10.40;99.90;;;;;;4143904;28;20033;-64
2022/04/07 01:36:54;;;;;;;2.75;1.00;;;10.50;99.90;;;;;;4143504;28;20053;-64
2022/04/07 01:38:58;;;;;;;4.30;1.35;;;10.50;99.90;;;;;;4143593;28;20377;-64
2022/04/07 01:40:58;;;;;;;5.43;1.20;;;10.50;99.90;;;;;;4142506;28;20140;-65
2022/04/07 01:43:00;;;;;;;4.05;1.27;;;10.50;99.90;;;;;;4143830;28;20041;-65
2022/04/07 01:45:03;;;;;;;3.30;1.42;;;10.50;99.90;;;;;;4145849;28;20032;-64
2022/04/07 01:47:05;;;;;;;2.10;0.93;;;10.50;99.90;;;;;;4143706;28;20437;-64
2022/04/07 01:49:07;;;;;;;5.03;1.20;;;10.50;99.90;;;;;;4145002;28;20109;-64
2022/04/07 01:51:10;;;;;;;2.97;1.25;;;10.50;99.90;;;;;;4146497;28;20488;-64
2022/04/07 01:53:12;;;;;;;5.50;1.40;;;10.50;99.90;;;;;;4144729;28;20030;-64
2022/04/07 01:55:15;;;;;;;4.93;1.17;;;10.50;99.90;;;;;;4126192;28;20157;-64
2022/04/07 01:57:16;;;;;;;4.82;1.10;;;10.50;99.90;;;;;;4141990;28;20057;-65
2022/04/07 01:59:18;;;;;;;5.45;1.38;;;10.60;99.90;;;;;;4142589;28;20209;-64
2022/04/07 02:01:19;;;;;;;2.17;0.90;;;10.60;99.90;;;;;;4140092;28;20486;-64
2022/04/07 02:03:19;;;;;;;3.65;1.30;;;10.60;99.90;;;;;;4143529;28;20062;-64
2022/04/07 02:05:20;;;;;;;2.97;0.88;;;10.60;99.90;;;;;;4142546;28;20033;-64
2022/04/07 02:07:21;;;;;;;3.88;1.33;;;10.60;99.90;;;;;;4143285;28;20030;-64
2022/04/07 02:09:21;;;;;;;3.55;1.10;;;10.60;99.90;;;;;;4143398;28;20133;-64
2022/04/07 02:11:22;;;;;;;2.90;1.17;;;10.60;99.90;;;;;;4142727;28;20501;-64
2022/04/07 02:13:23;;;;;;;6.30;1.60;;;10.60;99.90;;;;;;4143117;28;20071;-64
2022/04/07 02:15:26;;;;;;;3.08;1.13;;;10.50;99.90;;;;;;4142288;28;20385;-64
2022/04/07 02:17:26;;;;;;;3.72;1.30;;;10.60;99.90;;;;;;4143381;28;20034;-64
2022/04/07 02:19:28;;;;;;;4.03;1.20;;;10.60;99.90;;;;;;4143028;28;20061;-65
2022/04/07 02:21:29;;;;;;;4.57;1.45;;;10.60;99.90;;;;;;4141665;28;20037;-65
2022/04/07 02:23:30;;;;;;;5.25;1.50;;;10.60;99.90;;;;;;4143266;28;20113;-64
2022/04/07 02:25:31;;;;;;;3.63;1.35;;;10.60;99.90;;;;;;4142025;28;20129;-64
2022/04/07 02:27:39;;;;;;;6.65;1.52;;;10.60;99.90;;;;;;4143717;28;20529;-65
2022/04/07 02:29:42;;;;;;;5.68;1.55;;;10.50;99.90;;;;;;4145556;28;20042;-64
2022/04/07 02:31:42;;;;;;;5.47;1.40;;;10.50;99.90;;;;;;4144668;28;20104;-64
2022/04/07 02:33:44;;;;;;;4.20;1.48;;;10.50;99.90;;;;;;4145201;28;20489;-64
2022/04/07 02:35:45;;;;;;;3.92;1.58;;;10.50;99.90;;;;;;4143188;28;20412;-69
2022/04/07 02:37:46;;;;;;;3.83;1.10;;;10.50;99.90;;;;;;4143691;28;20042;-64
2022/04/07 02:39:46;;;;;;;4.43;1.33;;;10.40;99.90;;;;;;4143306;28;20538;-65
2022/04/07 02:41:47;;;;;;;3.88;1.20;;;10.50;99.90;;;;;;4145218;28;20057;-65
2022/04/07 02:43:48;;;;;;;2.97;1.10;;;10.40;99.90;;;;;;4145868;28;20076;-64
2022/04/07 02:45:49;;;;;;;3.08;1.23;;;10.30;99.90;;;;;;4145190;28;20113;-65
2022/04/07 02:47:49;;;;;;;7.03;1.27;;;10.40;99.90;;;;;;4145917;28;20041;-64
2022/04/07 02:49:50;;;;;;;3.30;1.33;;;10.40;99.90;;;;;;4145100;28;20037;-64
2022/04/07 02:51:51;;;;;;;3.28;1.30;;;10.40;99.90;;;;;;4145022;28;20021;-64
2022/04/07 02:53:57;;;;;;;3.63;1.45;;;10.30;99.90;;;;;;4145867;28;20042;-65
2022/04/07 02:55:57;;;;;;;2.40;1.00;;;10.40;99.90;;;;;;4144714;28;20034;-65
2022/04/07 02:57:59;;;;;;;3.42;1.52;;;10.40;99.90;;;;;;4145146;28;20034;-65
2022/04/07 03:00:00;;;;;;;4.70;1.75;;;10.30;99.90;;;;;;4145266;28;20046;-65
2022/04/07 03:02:01;;;;;;;4.63;1.45;;;10.30;99.90;;;;;;4144474;28;20042;-65
2022/04/07 03:04:02;;;;;;;5.13;1.80;;;10.40;99.90;;;;;;4144854;28;20033;-65
2022/04/07 03:06:02;;;;;;;5.00;1.60;;;10.40;99.90;;;;;;4144742;28;20048;-65
2022/04/07 03:08:03;;;;;;;4.93;1.55;;;10.40;99.90;;;;;;4145323;28;20041;-65
2022/04/07 03:10:04;;;;;;;5.22;1.42;;;10.40;99.90;;;;;;4145375;28;20042;-67
2022/04/07 03:12:05;;;;;;;3.47;1.40;;;10.40;99.90;;;;;;4145623;28;20095;-64
2022/04/07 03:14:05;;;;;;;7.07;1.58;;;10.40;99.90;;;;;;4145180;28;20121;-64
2022/04/07 03:16:07;;;;;;;6.72;1.70;;;10.40;99.90;;;;;;4145207;28;20626;-64
2022/04/07 03:18:08;;;;;;;3.80;1.52;;;10.50;99.90;;;;;;4145815;28;20041;-64
2022/04/07 03:20:08;;;;;;;3.60;1.25;;;10.40;99.90;;;;;;4145324;28;20045;-65
2022/04/07 03:22:09;;;;;;;4.72;1.40;;;10.50;99.90;;;;;;4146313;28;20037;-64
2022/04/07 03:24:11;;;;;;;6.50;1.80;;;10.40;99.90;;;;;;4145793;28;20034;-64
2022/04/07 03:26:12;;;;;;;4.35;1.00;;;10.50;99.90;;;;;;4145064;28;20050;-64
2022/04/07 03:28:13;;;;;;;4.03;1.50;;;10.50;99.90;;;;;;4145874;28;20496;-64
2022/04/07 03:30:13;;;;;;;6.80;1.48;;;10.50;99.90;;;;;;4144666;28;20069;-65
2022/04/07 03:32:14;;;;;;;4.97;1.42;;;10.50;99.90;;;;;;4145431;28;20037;-64
2022/04/07 03:34:15;;;;;;;5.63;1.50;;;10.50;99.90;;;;;;4145445;28;20042;-64
2022/04/07 03:36:15;;;;;;;11.18;1.60;;;10.50;99.90;;;;;;4144175;28;20041;-64
2022/04/07 03:38:16;;;;;;;3.55;1.13;;;10.50;99.90;;;;;;4143583;28;20056;-66
2022/04/07 03:40:17;;;;;;;6.60;1.45;;;10.50;99.90;;;;;;4144628;28;20088;-65
2022/04/07 03:42:17;;;;;;;4.22;1.35;;;10.60;99.90;;;;;;4145371;28;20527;-64
2022/04/07 03:44:18;;;;;;;6.22;1.70;;;10.60;99.90;;;;;;4144494;28;20121;-64
2022/04/07 03:46:21;;;;;;;5.78;1.70;;;10.60;99.90;;;;;;4144450;28;20033;-64
2022/04/07 03:48:22;;;;;;;3.40;1.10;;;10.60;99.90;;;;;;4145358;28;20048;-64
2022/04/07 03:50:22;;;;;;;5.10;1.67;;;10.60;99.90;;;;;;4144845;28;20030;-64
2022/04/07 03:52:23;;;;;;;3.05;1.35;;;10.60;99.90;;;;;;4144981;28;20040;-65
2022/04/07 03:54:24;;;;;;;5.32;1.60;;;10.60;99.90;;;;;;4144908;28;20034;-64
2022/04/07 03:56:24;;;;;;;4.20;1.48;;;10.70;99.90;;;;;;4144589;28;20069;-64
2022/04/07 03:58:26;;;;;;;5.43;1.95;;;10.70;99.90;;;;;;4144878;28;20493;-64
2022/04/07 04:00:28;;;;;;;6.78;1.42;;;10.70;99.90;;;;;;4144629;28;20528;-64
2022/04/07 04:02:28;;;;;;;3.88;1.30;;;10.60;99.90;;;;;;4140642;28;20034;-65
2022/04/07 04:04:29;;;;;;;7.00;1.50;;;10.70;99.90;;;;;;4145707;28;20398;-64
2022/04/07 04:06:30;;;;;;;7.90;1.67;;;10.70;99.90;;;;;;4143169;28;20171;-64
2022/04/07 04:08:31;;;;;;;7.43;1.55;;;10.70;99.90;;;;;;4143282;28;20045;-64
2022/04/07 04:10:32;;;;;;;6.45;1.95;;;10.70;99.90;;;;;;4144182;28;20076;-64
2022/04/07 04:12:32;;;;;;;6.13;1.48;;;10.70;99.90;;;;;;4144246;28;20050;-64
2022/04/07 04:14:33;;;;;;;4.25;1.60;;;10.70;99.90;;;;;;4144704;28;20042;-64
2022/04/07 04:16:34;;;;;;;5.57;1.30;;;10.70;99.90;;;;;;4144283;28;20041;-63
2022/04/07 04:18:35;;;;;;;4.57;1.33;;;10.70;99.90;;;;;;4141595;28;20473;-64
2022/04/07 04:20:36;;;;;;;4.35;1.10;;;10.70;99.90;;;;;;4144482;28;20049;-64
2022/04/07 04:22:37;;;;;;;6.10;1.73;;;10.80;99.90;;;;;;4143805;28;20033;-64
2022/04/07 04:24:38;;;;;;;4.88;1.42;;;10.70;99.90;;;;;;4144614;28;20034;-64
2022/04/07 04:26:38;;;;;;;5.63;1.38;;;10.80;99.90;;;;;;4141864;28;20038;-63
2022/04/07 04:28:39;;;;;;;4.95;1.30;;;10.70;99.90;;;;;;4141583;28;20030;-63
2022/04/07 04:30:40;;;;;;;4.18;1.45;;;10.70;99.90;;;;;;4141063;28;20564;-64
2022/04/07 04:32:43;;;;;;;4.45;1.23;;;10.70;99.90;;;;;;4141667;28;20045;-63
2022/04/07 04:34:44;;;;;;;4.55;1.45;;;10.80;99.90;;;;;;4141489;28;20429;-63
2022/04/07 04:36:44;;;;;;;3.92;1.30;;;10.80;99.90;;;;;;4140604;28;20033;-63
2022/04/07 04:38:45;;;;;;;4.22;1.25;;;10.80;99.90;;;;;;4141330;28;20030;-64
2022/04/07 04:40:46;;;;;;;7.78;1.15;;;10.70;99.90;;;;;;4140127;28;20042;-63
2022/04/07 04:42:46;;;;;;;3.65;1.15;;;10.80;99.90;;;;;;4140417;28;20044;-65
2022/04/07 04:44:47;;;;;;;4.78;1.33;;;10.70;99.90;;;;;;4139644;28;20042;-64
2022/04/07 04:46:48;;;;;;;3.50;1.25;;;10.80;99.90;;;;;;4139954;28;20030;-63
2022/04/07 04:48:48;;;;;;;4.05;1.30;;;10.70;99.90;;;;;;4140601;28;20456;-63
2022/04/07 04:50:49;;;;;;;2.47;1.00;;;10.80;99.90;;;;;;4139930;28;20038;-64
2022/04/07 04:52:50;;;;;;;2.05;1.13;;;10.70;99.90;;;;;;4141433;28;20052;-63
2022/04/07 04:54:50;;;;;;;7.75;1.35;;;10.70;99.90;;;;;;4140584;28;20030;-63
2022/04/07 04:56:51;;;;;;;4.75;1.40;;;10.60;99.90;;;;;;4139548;28;20060;-64
2022/04/07 04:58:51;;;;;;;5.03;1.80;;;10.60;99.90;;;;;;4141108;28;20072;-64
2022/04/07 05:00:52;;;;;;;4.55;1.38;;;10.50;99.90;;;;;;4140671;28;20026;-64
2022/04/07 05:02:52;;;;;;;4.50;1.33;;;10.50;99.90;;;;;;4143166;28;20042;-64
2022/04/07 05:04:53;;;;;;;2.83;0.90;;;10.40;99.90;;;;;;4144206;28;20045;-64
2022/04/07 05:06:54;;;;;;;3.88;1.30;;;10.40;99.90;;;;;;4145398;28;20062;-64
2022/04/07 05:08:54;;;;;;;2.65;1.17;;;10.40;99.90;;;;;;4143895;28;20433;-64
2022/04/07 05:10:55;;;;;;;2.55;1.20;;;10.40;99.90;;;;;;4143229;28;20105;-64
2022/04/07 05:12:55;;;;;;;2.05;1.05;;;10.40;99.90;;;;;;4143871;28;20413;-64
2022/04/07 05:14:56;;;;;;;1.65;1.35;;;10.40;99.90;;;;;;4143787;28;20033;-64
2022/04/07 05:16:57;;;;;;;5.68;1.25;;;10.40;99.90;;;;;;4143334;28;20030;-63
2022/04/07 05:18:57;;;;;;;6.28;1.65;;;10.40;99.90;;;;;;4144016;28;20425;-63
2022/04/07 05:20:58;;;;;;;2.40;1.35;;;10.30;99.90;;;;;;4143643;28;20026;-63
2022/04/07 05:22:58;;;;;;;3.75;1.55;;;10.30;99.90;;;;;;4139566;28;20103;-64
2022/04/07 05:24:59;;;;;;;2.70;1.42;;;10.30;99.90;;;;;;4139058;28;20049;-65
2022/04/07 05:27:00;;;;;;;3.80;1.58;;;10.30;99.90;;;;;;4139931;28;20096;-64
2022/04/07 05:29:00;;;;;;;6.20;1.77;;;10.30;99.90;;;;;;4140756;28;20245;-65
2022/04/07 05:31:01;;;;;;;3.95;1.63;;;10.30;99.90;;;;;;4139832;28;20041;-64
2022/04/07 05:33:01;;;;;;;4.50;1.63;;;10.30;99.90;;;;;;4139933;28;20030;-64
2022/04/07 05:35:02;;;;;;;5.18;1.58;;;10.20;99.90;;;;;;4140482;28;20556;-65
2022/04/07 05:37:03;;;;;;;2.83;1.40;;;10.20;99.90;;;;;;4139686;28;20042;-64
2022/04/07 05:39:05;;;;;;;4.03;1.40;;;10.30;99.90;;;;;;4140296;28;20068;-64
2022/04/07 05:41:05;;;;;;;2.00;1.27;;;10.20;99.90;;;;;;4139963;28;20034;-64
2022/04/07 05:43:06;;;;;;;2.83;1.38;;;10.20;99.90;;;;;;4139815;28;20037;-63
2022/04/07 05:45:08;;;;;;;3.35;1.10;;;10.20;99.90;;;;;;4139063;28;20034;-65
2022/04/07 05:47:09;;;;;;;3.30;1.13;;;10.20;99.90;;;;;;4155303;28;20065;-64
2022/04/07 05:49:11;;;;;;;3.83;1.02;;;10.30;99.90;;;;;;4139817;28;20501;-63
2022/04/07 05:51:12;;;;;;;7.22;1.58;;;10.20;99.90;;;;;;4139691;28;20040;-63
2022/04/07 05:53:12;;;;;;;4.43;1.65;;;10.20;99.90;;;;;;4139478;28;20045;-63
2022/04/07 05:55:13;;;;;;;1.33;0.82;;;10.30;99.90;;;;;;4137868;28;20026;-65
2022/04/07 05:57:14;;;;;;;2.90;1.00;;;10.20;99.90;;;;;;4139864;28;20030;-64
2022/04/07 05:59:14;;;;;;;2.78;1.00;;;10.30;99.90;;;;;;4139541;28;20500;-64
2022/04/07 06:01:17;;;;;;;3.05;1.30;;;10.20;99.90;;;;;;4140269;28;20075;-64
2022/04/07 06:03:18;;;;;;;3.00;1.35;;;10.20;99.90;;;;;;4142678;28;20429;-65
2022/04/07 06:05:19;;;;;;;3.38;1.52;;;10.20;99.90;;;;;;4142803;28;22951;-64
2022/04/07 06:07:19;;;;;;;3.20;1.50;;;10.30;99.90;;;;;;4142781;28;20050;-64
2022/04/07 06:09:20;;;;;;;4.53;1.50;;;10.20;99.90;;;;;;4143512;28;20030;-65
2022/04/07 06:11:21;;;;;;;4.70;1.30;;;10.30;99.90;;;;;;4143276;28;20508;-65
2022/04/07 06:13:21;;;;;;;2.80;1.17;;;10.30;99.90;;;;;;4142701;28;20084;-64
2022/04/07 06:15:23;;;;;;;6.18;1.40;;;10.30;99.90;;;;;;4141776;28;20034;-65
2022/04/07 06:17:41;;;;;;;4.13;1.23;;;10.30;99.90;;;;;;4142715;28;20126;-65
2022/04/07 06:19:41;;;;;;;3.35;1.20;;;10.30;99.90;;;;;;4142538;28;20038;-64
2022/04/07 06:21:43;;;;;;;2.53;1.05;;;10.30;99.90;;;;;;4143838;28;20044;-64
2022/04/07 06:23:44;;;;;;;1.50;0.70;;;10.30;99.90;;;;;;4142413;28;20030;-64
2022/04/07 06:25:45;;;;;;;1.98;0.80;;;10.30;99.90;;;;;;4142192;28;20064;-64
2022/04/07 06:27:47;;;;;;;2.00;0.98;;;10.30;99.90;;;;;;4143246;28;20030;-64
2022/04/07 06:29:47;;;;;;;2.17;1.00;;;10.40;99.90;;;;;;4142424;28;20061;-64
2022/04/07 06:31:48;;;;;;;1.75;0.88;;;10.30;99.90;;;;;;4141192;28;20105;-65
2022/04/07 06:33:48;;;;;;;1.50;0.82;;;10.30;99.90;;;;;;4142768;28;20108;-65
2022/04/07 06:35:50;;;;;;;4.68;1.00;;;10.30;99.90;;;;;;4142033;28;20042;-64
2022/04/07 06:37:53;;;;;;;2.15;0.82;;;10.40;99.90;;;;;;4143184;28;20425;-65
2022/04/07 06:40:04;;;;;;;1.92;1.00;;;10.40;99.90;;;;;;4137394;28;20113;-64
2022/04/07 06:42:04;;;;;;;3.05;0.90;;;10.40;99.90;;;;;;4138983;28;20048;-64
2022/04/07 06:44:05;;;;;;;2.53;0.90;;;10.40;99.90;;;;;;4142229;28;20042;-64
2022/04/07 06:46:06;;;;;;;3.03;1.10;;;10.40;99.90;;;;;;4138750;28;20042;-65
2022/04/07 06:48:08;;;;;;;2.05;1.00;;;10.40;99.90;;;;;;4138173;28;20085;-64
2022/04/07 06:50:16;;;;;;;2.55;0.73;;;10.50;99.90;;;;;;4142556;28;20044;-64
2022/04/07 06:52:17;;;;;;;0.57;0.50;;;10.40;99.90;;;;;;4142143;28;20117;-64
2022/04/07 06:54:18;;;;;;;1.83;1.10;;;10.40;99.90;;;;;;4142417;28;20397;-65
2022/04/07 06:56:19;;;;;;;2.80;0.90;;;10.50;99.90;;;;;;4141860;28;20034;-65
2022/04/07 06:58:20;;;;;;;2.90;0.57;;;10.40;99.90;;;;;;4141593;28;20645;-64
2022/04/07 07:00:22;;;;;;;1.65;0.90;;;10.40;99.90;;;;;;4140234;28;20030;-64
2022/04/07 07:02:23;;;;;;;2.22;0.73;;;10.40;99.90;;;;;;4142504;28;20033;-64
2022/04/07 07:04:24;;;;;;;2.45;0.82;;;10.40;99.90;;;;;;4142144;28;20037;-64
2022/04/07 07:06:25;;;;;;;1.80;0.80;;;10.40;99.90;;;;;;4141645;28;20398;-64
2022/04/07 07:08:26;;;;;;;1.77;0.77;;;10.40;99.90;;;;;;4142215;28;20037;-64
2022/04/07 07:10:30;;;;;;;4.32;1.08;;;10.40;99.90;;;;;;4142875;28;20069;-63
2022/04/07 07:12:31;;;;;;;1.13;0.43;;;10.40;99.90;;;;;;4123715;28;20038;-65
2022/04/07 07:14:31;;;;;;;2.95;0.70;;;10.30;99.90;;;;;;4140395;28;20057;-63
2022/04/07 07:16:32;;;;;;;2.03;0.90;;;10.30;99.90;;;;;;4124209;28;20042;-63
2022/04/07 07:18:32;;;;;;;2.80;0.98;;;10.30;99.90;;;;;;4142288;28;20041;-64
2022/04/07 07:20:34;;;;;;;2.40;0.88;;;10.30;99.90;;;;;;4141246;28;20077;-63
2022/04/07 07:22:34;;;;;;;2.22;0.60;;;10.30;99.90;;;;;;4141082;28;20053;-63
2022/04/07 07:24:35;;;;;;;1.35;0.70;;;10.30;99.90;;;;;;4141663;28;20505;-63
2022/04/07 07:26:36;;;;;;;2.72;0.73;;;10.20;99.90;;;;;;4141267;28;20058;-63
2022/04/07 07:28:36;;;;;;;2.70;0.95;;;10.20;99.90;;;;;;4142228;28;20568;-63
2022/04/07 07:30:37;;;;;;;2.40;0.70;;;10.20;99.90;;;;;;4141286;28;20120;-64
2022/04/07 07:32:42;;;;;;;1.52;0.50;;;10.20;99.90;;;;;;4141953;28;20586;-63
2022/04/07 07:34:42;;;;;;;0.63;0.50;;;10.20;99.90;;;;;;4141516;28;20030;-63
2022/04/07 07:36:43;;;;;;;2.03;0.75;;;10.20;99.90;;;;;;4139231;28;20697;-63
2022/04/07 07:38:43;;;;;;;3.15;0.90;;;10.20;99.90;;;;;;4142052;28;20029;-63
2022/04/07 07:40:44;;;;;;;1.70;0.70;;;10.20;99.90;;;;;;4141231;28;20065;-64
2022/04/07 07:42:45;;;;;;;3.30;0.88;;;10.30;99.90;;;;;;4141374;28;20022;-63
2022/04/07 07:44:45;;;;;;;1.52;0.63;;;10.30;99.90;;;;;;4141946;28;20113;-63
2022/04/07 07:46:46;;;;;;;1.80;0.70;;;10.30;99.90;;;;;;4139822;28;20048;-63
2022/04/07 07:48:46;;;;;;;1.58;0.45;;;10.30;99.90;;;;;;4141902;28;20088;-63
2022/04/07 07:50:47;;;;;;;0.75;0.65;;;10.30;99.90;;;;;;4141215;28;20029;-63
2022/04/07 07:52:48;;;;;;;3.70;0.50;;;10.40;99.90;;;;;;4143824;28;20044;-63
2022/04/07 07:54:49;;;;;;;2.35;0.50;;;10.40;99.90;;;;;;4141826;28;20018;-63
2022/04/07 07:56:49;;;;;;;2.35;0.55;;;10.30;99.90;;;;;;4140929;28;20060;-63
2022/04/07 07:58:50;;;;;;;0.45;0.20;;;10.30;99.90;;;;;;4140909;28;20022;-64
2022/04/07 08:00:51;;;;;;;1.80;0.70;;;10.30;99.90;;;;;;4140909;28;20533;-64
2022/04/07 08:02:52;;;;;;;0.93;0.50;;;10.30;99.90;;;;;;4140699;28;20468;-64
2022/04/07 08:04:53;;;;;;;1.20;0.60;;;10.40;99.90;;;;;;4141398;28;20029;-63
2022/04/07 08:06:53;;;;;;;0.77;0.32;;;10.50;99.90;;;;;;4140927;28;20026;-63
2022/04/07 08:08:54;;;;;;;0.13;0.13;;;10.50;99.90;;;;;;4141345;28;20034;-64
2022/04/07 08:10:55;;;;;;;0.93;0.20;;;10.50;99.90;;;;;;4141033;28;20109;-63
2022/04/07 08:12:56;;;;;;;1.52;0.60;;;10.50;99.90;;;;;;4140224;28;20045;-64
2022/04/07 08:14:56;;;;;;;0.68;0.30;;;10.60;99.90;;;;;;4140281;28;20033;-63
2022/04/07 08:16:57;;;;;;;1.00;0.60;;;10.60;99.90;;;;;;4140084;28;20910;-64
2022/04/07 08:18:58;;;;;;;1.95;0.35;;;10.60;99.90;;;;;;4141045;28;20030;-63
2022/04/07 08:20:59;;;;;;;0.88;0.32;;;10.70;99.90;;;;;;4139294;28;21015;-63
2022/04/07 08:22:59;;;;;;;0.52;0.30;;;10.70;99.90;;;;;;4140517;28;20033;-63
2022/04/07 08:25:00;;;;;;;1.88;0.55;;;10.70;99.90;;;;;;4140446;28;20457;-64
2022/04/07 08:27:07;;;;;;;0.30;0.30;;;10.80;99.90;;;;;;4139301;28;20053;-63
2022/04/07 08:29:07;;;;;;;0.88;0.30;;;10.80;99.90;;;;;;4140471;28;20034;-63
2022/04/07 08:31:08;;;;;;;0.70;0.47;;;10.80;99.90;;;;;;4139694;28;20033;-63
2022/04/07 08:33:08;;;;;;;0.40;0.40;;;10.80;99.90;;;;;;4140480;28;20078;-64
2022/04/07 08:35:10;;;;;;;0.30;0.30;;;10.80;99.90;;;;;;4141818;28;20034;-67
2022/04/07 08:37:10;;;;;;;1.25;0.25;;;10.80;99.90;;;;;;4143133;28;20038;-63
2022/04/07 08:39:11;;;;;;;0.30;0.20;;;10.80;99.90;;;;;;4141322;28;20034;-63
2022/04/07 08:41:12;;;;;;;1.20;0.35;;;10.80;99.90;;;;;;4142500;28;20129;-63
2022/04/07 08:43:13;;;;;;;0.40;0.28;;;10.80;99.90;;;;;;4142141;28;20094;-63
2022/04/07 08:45:14;;;;;;;2.13;0.30;;;10.90;99.90;;;;;;4142031;28;20042;-64
2022/04/07 08:47:20;;;;;;;0.82;0.30;;;10.90;99.90;;;;;;4143156;28;20049;-63
2022/04/07 08:49:22;;;;;;;0.38;0.20;;;10.90;99.90;;;;;;4142982;28;20080;-63
2022/04/07 08:51:25;;;;;;;0.80;0.20;;;11.00;99.90;;;;;;4143579;28;20429;-64
2022/04/07 08:53:26;;;;;;;1.15;0.20;;;11.00;99.90;;;;;;4143398;28;20446;-63
2022/04/07 08:55:27;;;;;;;4.32;0.88;;;11.10;99.90;;;;;;4142606;28;20112;-63
2022/04/07 08:57:29;;;;;;;3.92;0.77;;;10.80;99.90;;;;;;4142801;28;20053;-63
2022/04/07 08:59:30;;;;;;;2.22;0.50;;;10.40;99.90;;;;;;4144391;28;20034;-63
2022/04/07 09:01:31;;;;;;;1.88;0.55;;;10.00;99.90;;;;;;4144788;28;20038;-63
2022/04/07 09:03:31;;;;;;;2.55;0.45;;;9.80;99.90;;;;;;4146020;28;20042;-65
2022/04/07 09:05:32;;;;;;;1.45;0.25;;;9.60;99.90;;;;;;4143712;28;20041;-64
2022/04/07 09:07:33;;;;;;;1.52;0.30;;;9.50;99.90;;;;;;4144249;28;20041;-63
2022/04/07 09:09:36;;;;;;;1.92;0.70;;;9.50;99.90;;;;;;4144947;28;20042;-63
2022/04/07 09:11:36;;;;;;;1.05;0.43;;;9.40;99.90;;;;;;4139804;28;20045;-62
2022/04/07 09:13:39;;;;;;;1.23;0.40;;;9.40;99.90;;;;;;4142068;28;20038;-62
2022/04/07 09:15:41;;;;;;;1.75;0.55;;;9.40;99.90;;;;;;4142777;28;20092;-63
2022/04/07 09:17:50;;;;;;;4.28;0.50;;;9.40;99.90;;;;;;4144936;28;20038;-63
2022/04/07 09:19:50;;;;;;;2.08;0.40;;;9.40;99.90;;;;;;4142660;28;20034;-63
2022/04/07 09:22:14;;;;;;;3.58;0.65;;;9.40;99.90;;;;;;4141587;28;20163;-64
2022/04/07 09:24:15;;;;;;;;;;;9.40;99.90;;;;;;4137023;28;20026;-63
2022/04/07 09:26:16;;;;;;;1.17;0.30;;;9.40;99.90;;;;;;4141794;28;19917;-63
2022/04/07 09:28:30;;;;;;;0.90;0.30;;;9.40;99.90;;;;;;4142669;28;20041;-63
2022/04/07 09:30:38;;;;;;;0.98;0.25;;;9.50;99.90;;;;;;4140439;28;20046;-62
2022/04/07 09:32:43;;;;;;;2.38;0.38;;;9.50;99.90;;;;;;4142646;28;20037;-63
2022/04/07 09:34:44;;;;;;;0.82;0.35;;;9.40;99.90;;;;;;4140775;28;20067;-63
2022/04/07 09:37:03;;;;;;;1.83;0.40;;;9.40;99.90;;;;;;4143060;28;20471;-62
2022/04/07 09:39:04;;;;;;;0.95;0.45;;;9.50;99.90;;;;;;4146259;28;20125;-63
2022/04/07 09:41:12;;;;;;;4.00;0.90;;;9.50;99.90;;;;;;4145996;28;20563;-64
2022/04/07 09:43:14;;;;;;;3.90;1.00;;;9.60;99.90;;;;;;4145945;28;20367;-63
2022/04/07 09:45:14;;;;;;;1.92;0.65;;;9.60;99.90;;;;;;4145487;28;20030;-63
2022/04/07 09:47:15;;;;;;;1.83;0.63;;;9.60;99.90;;;;;;4146678;28;20036;-63
2022/04/07 09:49:17;;;;;;;1.27;0.60;;;9.70;99.90;;;;;;4146589;28;20041;-63
2022/04/07 09:51:18;;;;;;;1.23;0.65;;;9.80;99.90;;;;;;4145638;28;20088;-63
2022/04/07 09:53:20;;;;;;;2.20;0.82;;;9.90;99.90;;;;;;4146173;28;20060;-63
2022/04/07 09:55:28;;;;;;;1.42;0.80;;;10.00;99.90;;;;;;4145777;28;20085;-62
2022/04/07 09:57:29;;;;;;;3.47;0.73;;;10.20;99.90;;;;;;4128058;28;20498;-63
2022/04/07 09:59:31;;;;;;;1.45;0.70;;;10.30;99.90;;;;;;4147364;28;20030;-63
2022/04/07 10:01:33;;;;;;;2.10;0.60;;;10.40;99.90;;;;;;4145808;28;20045;-63
2022/04/07 10:03:34;;;;;;;2.72;0.65;;;10.40;99.90;;;;;;4145295;28;20049;-64
2022/04/07 10:05:34;;;;;;;1.10;0.68;;;10.50;99.90;;;;;;4145313;28;20037;-64
2022/04/07 10:07:35;;;;;;;1.10;0.55;;;10.60;99.90;;;;;;4145281;28;20034;-64
2022/04/07 10:09:39;;;;;;;1.90;0.75;;;10.70;99.90;;;;;;4143963;28;20042;-64
2022/04/07 10:11:41;;;;;;;2.22;0.82;;;10.70;99.90;;;;;;4142679;28;20048;-63
2022/04/07 10:13:46;;;;;;;2.25;1.02;;;10.80;99.90;;;;;;4142868;28;20050;-63
2022/04/07 10:15:50;;;;;;;1.17;0.68;;;10.90;99.90;;;;;;4124994;28;20394;-63
2022/04/07 10:17:50;;;;;;;1.63;0.80;;;10.90;99.90;;;;;;4142766;28;20066;-63
2022/04/07 10:20:01;;;;;;;2.50;1.00;;;11.00;99.90;;;;;;4142119;28;20037;-63
2022/04/07 10:22:02;;;;;;;1.48;0.88;;;11.10;99.90;;;;;;4143873;28;20405;-64
2022/04/07 10:24:31;;;;;;;2.72;0.93;;;11.20;99.90;;;;;;4141735;28;20038;-65
2022/04/07 10:26:33;;;;;;;2.47;0.93;;;11.30;99.90;;;;;;4141939;28;20144;-63
2022/04/07 10:28:34;;;;;;;2.10;0.80;;;11.40;99.90;;;;;;4148214;28;20045;-64
2022/04/07 10:30:47;;;;;;;2.30;0.85;;;11.50;99.90;;;;;;4142353;28;20378;-64
2022/04/07 10:32:49;;;;;;;0.70;0.60;;;11.60;99.90;;;;;;4142378;28;20030;-63
2022/04/07 10:34:59;;;;;;;1.02;0.75;;;11.80;99.90;;;;;;4142779;28;20037;-63